メインページ
METAR-TAF:

METAR-TAF

空港 :

クリアカン, メキシコ

緯度: 24-49N, 経度: 107-24W, 海抜: 39m

現時点の気象観測

当レポートは2時間1分前の04:40(UTC)に作成
無風
気温 21°C
湿度 60%
気圧 1016 hPa
視程: 16.1km
高度23000ftの曇り

METAR: MMCL 210440Z 00000KT 10SM OVC230 21/13 A3000 RMK 8/007

時間: 23:41 (06:41 UTC)

予報

当レポートは2時間30分前の04:11(UTC)に作成
予報は21日の 06時(UTC)から 22日の 06時(UTC)まで有効
の風 kt
視程: 10km
高度25000ftの千切れ雲あり
21日の 1800時(UTC)から
西の風 10kt
視程: 10km
高度12000ftの雲は散在している
高度25000ftの千切れ雲あり
22日の 0500時(UTC)から
の風 kt
視程: 10km
高度25000ftの千切れ雲あり

TAF: MMCL 210411Z 2106/2206 00000KT P6SM BKN250 FM211800 26010KT P6SM SCT120 BKN250 FM220500 00000KT P6SM BKN250

4,000以上の空港の気象観測と天気予報(METAR報とTAF報)

利用可能な観測所は地図上に黄色い丸と赤い丸で示す。

丸の上にカーソルを重ねると観測所名を参照できる。

次にクリックすると気象観測と天気予報を参照できる。

マップの切り替え:黒色「×」印の緑ボタンをクリックして拡大、「-」印の緑ボタンをクリックして縮小、緑色の三角印をクリックして隣りの地図に切り替え


METAR-TAF: